Ana Sayfa
METAR-TAF:

METAR-TAF

Havaalanları :

Fort Stockton-Pecos County Airport

Fort Stockton, Teksas, Amerika Birleşik Devletleri

Enlem: 30-54-43N, Boylam: 102-55-00W, yükseklik: 917 m

Güncel hava durumu gözlemi

Rapor saat 13:53 UTC de 45 dakika önce yapıldı.
Rüzgar güney/güneydoğudan 8 kt
Sıcaklık 1°C
Nem 64%
Basınç 1020 hPa
Görüş mesafesi: 16.1 km
Açık gökyüzü

METAR: KFST 291353Z AUTO 15008KT 10SM CLR 01/M05 A3011 RMK AO2 SLP183 T00061050

Saat: 08:38 (14:38 UTC)

Tahmin

Rapor saat 11:29 UTC de 3 saat ve 9 dakika önce yapıldı.
Ayın 29'si saat 12 UTC'den ayın 30'si saat 12 UTC'ye kadar geçerli Tahmin
Rüzgar güney/güneybatıdan 6 kt
Görüş mesafesi: 10 km
Açık gökyüzü
Ayın 29'si saat 1800 UTC'den
Rüzgar doğu/güneydoğudan 12 kt
Görüş mesafesi: 10 km
20000 ft yükseklikte az bulutlu

TAF: KFST 291129Z 2912/3012 20006KT P6SM SKC FM291800 12012KT P6SM FEW200

4.000'den fazla havaalanı için hava durumu gözlemleri ve tahminleri (METAR ve TAF raporları).

Kullanılabilir istasyonlar harita üzerinde sarı ve kırmızı noktalarla gösterilir.

İstasyonun adını görmek için fareyi noktanın üzerinde gezdirin.

Sonrasında hava gözlem ve tahminlerini görmek için tıklayın.

Haritayı değiştirmek için: yaklaştırmak için siyah artı işaretli yeşil düğmeye ve uzaklaştırmak için de eksi işaretli düğmeye hızla tıklayın; bitişik haritalar için yeşil okları kullanın.


METAR-TAF: